createdAt,value
2019-04-07T00:01:24.068Z,93.17
2019-04-07T00:01:58.684Z,92.97
2019-04-07T00:03:08.414Z,92.97
2019-04-07T00:04:30.688Z,93.07
2019-04-07T00:05:29.622Z,92.97
2019-04-07T00:06:56.043Z,93.07
2019-04-07T00:07:54.139Z,92.88
2019-04-07T00:08:42.179Z,93.55
2019-04-07T00:10:02.851Z,93.55
2019-04-07T00:10:48.704Z,93.36
2019-04-07T00:11:51.957Z,92.88
2019-04-07T00:12:57.633Z,92.97
2019-04-07T00:14:28.185Z,92.64
2019-04-07T00:15:27.763Z,93.02
2019-04-07T00:16:13.628Z,92.97
2019-04-07T00:17:25.052Z,93.26
2019-04-07T00:18:22.363Z,92.97
2019-04-07T00:19:32.235Z,92.97
2019-04-07T00:21:02.394Z,93.07
2019-04-07T00:21:42.532Z,93.21
2019-04-07T00:22:41.317Z,92.97
2019-04-07T00:23:56.376Z,93.60
2019-04-07T00:24:51.975Z,93.02
2019-04-07T00:26:09.846Z,92.93
2019-04-07T00:27:32.439Z,93.31
2019-04-07T00:28:23.543Z,92.69
2019-04-07T00:29:22.832Z,92.83
2019-04-07T00:30:39.906Z,92.74
2019-04-07T00:32:02.508Z,92.45
2019-04-07T00:32:50.697Z,91.97
2019-04-07T00:33:44.713Z,92.12
2019-04-07T00:35:04.333Z,92.16
2019-04-07T00:36:00.866Z,92.02
2019-04-07T00:37:09.875Z,92.64
2019-04-07T00:38:07.402Z,92.36
2019-04-07T00:39:22.594Z,92.45
2019-04-07T00:40:14.506Z,92.31
2019-04-07T00:41:27.508Z,92.36
2019-04-07T00:42:29.115Z,92.69
2019-04-07T00:43:40.842Z,92.79
2019-04-07T00:44:51.294Z,92.79
2019-04-07T00:45:51.506Z,92.93
2019-04-07T00:46:58.621Z,93.60
2019-04-07T00:48:00.425Z,93.46
2019-04-07T00:49:07.404Z,93.21
2019-04-07T00:50:53.896Z,93.26
2019-04-07T00:51:37.564Z,93.55
2019-04-07T00:52:40.493Z,93.17
2019-04-07T00:53:42.139Z,92.97
2019-04-07T00:54:46.970Z,92.64
2019-04-07T00:56:12.478Z,92.74
2019-04-07T00:57:02.332Z,92.36
2019-04-07T00:58:23.714Z,92.07
2019-04-07T00:59:02.812Z,92.55
2019-04-07T01:00:38.788Z,92.16
2019-04-07T01:01:20.757Z,91.21
2019-04-07T01:02:19.261Z,91.45
2019-04-07T01:03:33.710Z,92.12
2019-04-07T01:04:47.651Z,91.83
2019-04-07T01:05:42.564Z,91.55
2019-04-07T01:06:37.315Z,91.83
2019-04-07T01:07:46.638Z,91.69
2019-04-07T01:08:52.499Z,91.36
2019-04-07T01:09:55.277Z,91.78
2019-04-07T01:11:29.791Z,91.36
2019-04-07T01:12:14.210Z,91.36
2019-04-07T01:13:37.395Z,91.64
2019-04-07T01:14:17.090Z,91.74
2019-04-07T01:15:21.092Z,91.64
2019-04-07T01:16:52.935Z,91.36
2019-04-07T01:17:56.846Z,91.26
2019-04-07T01:18:38.113Z,91.45
2019-04-07T01:20:18.163Z,91.36
2019-04-07T01:21:00.571Z,91.45
2019-04-07T01:21:59.126Z,90.97
2019-04-07T01:23:29.443Z,90.78
2019-04-07T01:24:53.422Z,91.07
2019-04-07T01:26:06.296Z,90.97
2019-04-07T01:27:06.737Z,90.78
2019-04-07T01:28:08.281Z,90.59
2019-04-07T01:29:51.688Z,89.92
2019-04-07T01:30:27.225Z,90.78
2019-04-07T01:31:53.361Z,90.88
2019-04-07T01:32:55.308Z,91.16
2019-04-07T01:33:46.857Z,91.16
2019-04-07T01:35:10.138Z,90.59
2019-04-07T01:35:59.827Z,90.31
2019-04-07T01:37:00.943Z,90.21
2019-04-07T01:38:13.682Z,90.21
2019-04-07T01:38:56.506Z,90.36
2019-04-07T01:40:19.884Z,90.45
2019-04-07T01:41:27.530Z,90.55
2019-04-07T01:42:15.185Z,90.73
2019-04-07T01:43:20.363Z,90.45
2019-04-07T01:44:40.942Z,89.78
2019-04-07T01:45:48.131Z,89.59
2019-04-07T01:46:43.320Z,90.36
2019-04-07T01:47:49.984Z,90.36
2019-04-07T01:49:03.918Z,89.88
2019-04-07T01:49:54.606Z,90.17
2019-04-07T01:51:02.330Z,90.17
2019-04-07T01:52:13.155Z,90.36
2019-04-07T01:53:15.315Z,90.07
2019-04-07T01:54:29.881Z,90.17
2019-04-07T01:55:29.905Z,89.59
2019-04-07T01:56:37.221Z,89.31
2019-04-07T01:57:41.097Z,89.21
2019-04-07T01:58:41.589Z,88.88
2019-04-07T01:59:57.337Z,89.45
2019-04-07T02:00:45.882Z,89.36
2019-04-07T02:01:59.314Z,89.17
2019-04-07T02:03:03.310Z,89.93
2019-04-07T02:04:19.149Z,89.36
2019-04-07T02:05:15.577Z,89.83
2019-04-07T02:06:22.580Z,89.36
2019-04-07T02:07:24.662Z,89.36
2019-04-07T02:08:41.818Z,89.17
2019-04-07T02:09:41.953Z,89.54
2019-04-07T02:10:37.957Z,89.26
2019-04-07T02:11:47.151Z,89.74
2019-04-07T02:12:55.692Z,89.26
2019-04-07T02:13:59.273Z,89.26
2019-04-07T02:15:11.578Z,89.83
2019-04-07T02:16:13.422Z,89.93
2019-04-07T02:17:07.388Z,90.88
2019-04-07T02:18:20.023Z,90.88
2019-04-07T02:19:26.961Z,91.17
2019-04-07T02:20:32.214Z,90.98
2019-04-07T02:21:40.589Z,90.22
2019-04-07T02:22:44.589Z,89.93
2019-04-07T02:23:54.823Z,89.54
2019-04-07T02:24:59.765Z,89.64
2019-04-07T02:25:56.290Z,89.93
2019-04-07T02:26:59.745Z,89.54
2019-04-07T02:28:12.212Z,89.17
2019-04-07T02:29:19.212Z,89.03
2019-04-07T02:30:21.709Z,88.93
2019-04-07T02:31:23.443Z,88.74
2019-04-07T02:32:33.295Z,89.31
2019-04-07T02:33:37.138Z,89.31
2019-04-07T02:34:46.620Z,89.50
2019-04-07T02:35:46.575Z,89.40
2019-04-07T02:36:48.482Z,89.12
2019-04-07T02:38:06.249Z,89.89
2019-04-07T02:39:09.210Z,89.89
2019-04-07T02:40:13.741Z,89.69
2019-04-07T02:41:17.893Z,90.45
2019-04-07T02:42:25.032Z,90.64
2019-04-07T02:43:27.945Z,90.84
2019-04-07T02:44:35.220Z,90.45
2019-04-07T02:45:38.507Z,90.26
2019-04-07T02:46:42.916Z,90.17
2019-04-07T02:47:51.287Z,89.98
2019-04-07T02:48:56.343Z,90.74
2019-04-07T02:50:05.154Z,90.74
2019-04-07T02:51:15.322Z,90.64
2019-04-07T02:52:19.102Z,90.74
2019-04-07T02:53:19.448Z,90.26
2019-04-07T02:54:25.972Z,89.98
2019-04-07T02:55:29.960Z,90.17
2019-04-07T02:56:34.075Z,90.26
2019-04-07T02:57:37.977Z,89.98
2019-04-07T02:58:40.414Z,90.74
2019-04-07T02:59:48.839Z,91.03
2019-04-07T03:01:01.946Z,90.26
2019-04-07T03:02:05.823Z,90.17
2019-04-07T03:03:05.696Z,90.08
2019-04-07T03:04:18.982Z,90.45
2019-04-07T03:05:15.716Z,90.31
2019-04-07T03:06:34.660Z,89.89
2019-04-07T03:07:33.434Z,89.79
2019-04-07T03:08:38.661Z,89.46
2019-04-07T03:09:40.725Z,89.65
2019-04-07T03:10:52.295Z,89.46
2019-04-07T03:11:52.543Z,88.98
2019-04-07T03:12:59.480Z,89.07
2019-04-07T03:14:04.606Z,88.60
2019-04-07T03:15:16.055Z,89.17
2019-04-07T03:16:12.402Z,88.51
2019-04-07T03:17:22.135Z,88.98
2019-04-07T03:18:25.206Z,89.65
2019-04-07T03:19:34.548Z,89.46
2019-04-07T03:20:37.876Z,89.55
2019-04-07T03:21:42.436Z,90.12
2019-04-07T03:22:43.859Z,90.03
2019-04-07T03:23:51.377Z,90.12
2019-04-07T03:25:07.454Z,90.22
2019-04-07T03:26:13.401Z,90.50
2019-04-07T03:27:15.725Z,90.60
2019-04-07T03:28:21.494Z,90.98
2019-04-07T03:29:25.561Z,90.89
2019-04-07T03:30:31.080Z,90.79
2019-04-07T03:31:36.286Z,90.79
2019-04-07T03:32:41.355Z,90.79
2019-04-07T03:33:39.542Z,90.79
2019-04-07T03:34:48.900Z,91.36
2019-04-07T03:35:55.926Z,91.36
2019-04-07T03:37:14.956Z,91.27
2019-04-07T03:38:12.659Z,92.03
2019-04-07T03:39:11.122Z,91.94
2019-04-07T03:40:18.387Z,92.13
2019-04-07T03:41:27.726Z,91.94
2019-04-07T03:42:29.757Z,91.94
2019-04-07T03:43:37.965Z,92.13
2019-04-07T03:44:43.113Z,91.17
2019-04-07T03:45:51.988Z,91.27
2019-04-07T03:46:55.033Z,91.84
2019-04-07T03:47:59.510Z,90.89
2019-04-07T03:49:04.951Z,91.27
2019-04-07T03:50:15.025Z,90.89
2019-04-07T03:51:15.404Z,90.60
2019-04-07T03:52:21.267Z,90.89
2019-04-07T03:53:20.140Z,90.36
2019-04-07T03:54:37.852Z,90.65
2019-04-07T03:55:46.562Z,90.65
2019-04-07T03:56:50.256Z,90.94
2019-04-07T03:57:44.859Z,90.65
2019-04-07T03:58:46.083Z,90.36
2019-04-07T04:00:13.027Z,90.65
2019-04-07T04:01:05.180Z,90.94
2019-04-07T04:02:02.484Z,90.84
2019-04-07T04:03:23.165Z,90.94
2019-04-07T04:04:16.005Z,91.51
2019-04-07T04:05:35.865Z,91.22
2019-04-07T04:06:40.645Z,90.94
2019-04-07T04:07:36.997Z,91.03
2019-04-07T04:08:47.548Z,91.03
2019-04-07T04:09:54.032Z,91.03
2019-04-07T04:10:53.011Z,91.03
2019-04-07T04:12:01.302Z,91.03
2019-04-07T04:13:01.222Z,91.13
2019-04-07T04:14:20.280Z,91.41
2019-04-07T04:15:18.254Z,91.13
2019-04-07T04:16:32.682Z,90.75
2019-04-07T04:17:25.122Z,91.31
2019-04-07T04:18:26.855Z,91.37
2019-04-07T04:19:30.753Z,90.99
2019-04-07T04:20:46.406Z,90.84
2019-04-07T04:21:50.984Z,91.17
2019-04-07T04:23:03.834Z,91.37
2019-04-07T04:24:04.146Z,91.37
2019-04-07T04:25:19.938Z,90.51
2019-04-07T04:26:17.720Z,90.61
2019-04-07T04:27:41.971Z,91.08
2019-04-07T04:28:29.087Z,91.08
2019-04-07T04:29:53.450Z,90.70
2019-04-07T04:30:56.686Z,91.17
2019-04-07T04:31:30.970Z,90.89
2019-04-07T04:32:31.660Z,91.17
2019-04-07T04:34:03.337Z,91.46
2019-04-07T04:35:03.453Z,90.89
2019-04-07T04:36:22.472Z,91.75
2019-04-07T04:37:01.777Z,91.65
2019-04-07T04:38:39.190Z,91.27
2019-04-07T04:39:26.250Z,91.27
2019-04-07T04:40:26.319Z,91.65
2019-04-07T04:41:43.396Z,91.56
2019-04-07T04:42:47.188Z,91.56
2019-04-07T04:43:50.687Z,91.17
2019-04-07T04:45:16.832Z,91.37
2019-04-07T04:46:38.923Z,91.37
2019-04-07T04:47:42.804Z,91.27
2019-04-07T04:48:42.968Z,91.46
2019-04-07T04:49:35.668Z,90.99
2019-04-07T04:50:52.467Z,91.94
2019-04-07T04:52:33.004Z,92.03
2019-04-07T04:53:28.980Z,91.75
2019-04-07T04:54:27.867Z,91.56
2019-04-07T04:55:18.913Z,91.75
2019-04-07T04:56:37.517Z,92.03
2019-04-07T04:57:49.847Z,91.17
2019-04-07T04:58:46.286Z,91.27
2019-04-07T05:00:00.620Z,91.65
2019-04-07T05:01:45.076Z,91.27
2019-04-07T05:04:29.421Z,91.56
2019-04-07T05:05:59.331Z,90.51
2019-04-07T05:07:01.595Z,91.27
2019-04-07T05:08:34.576Z,91.37
2019-04-07T05:09:51.193Z,91.27
2019-04-07T05:10:52.093Z,91.17
2019-04-07T05:12:07.357Z,91.27
2019-04-07T05:13:08.187Z,91.37
2019-04-07T05:14:37.808Z,91.27
2019-04-07T05:15:48.501Z,91.37
2019-04-07T05:16:19.978Z,91.37
2019-04-07T05:17:54.907Z,91.08
2019-04-07T05:19:14.283Z,91.08
2019-04-07T05:20:34.510Z,91.17
2019-04-07T05:22:01.589Z,90.89
2019-04-07T05:23:05.241Z,91.56
2019-04-07T05:24:55.532Z,91.56
2019-04-07T05:25:50.355Z,91.27
2019-04-07T05:26:31.201Z,92.13
2019-04-07T05:29:08.395Z,91.75
2019-04-07T05:30:16.845Z,91.84
2019-04-07T05:31:31.552Z,91.56
2019-04-07T05:32:29.716Z,91.56
2019-04-07T05:33:33.411Z,91.65
2019-04-07T05:34:20.516Z,91.65
2019-04-07T05:35:39.533Z,91.75
2019-04-07T05:36:33.530Z,91.94
2019-04-07T05:37:34.135Z,92.13
2019-04-07T05:38:44.554Z,91.94
2019-04-07T05:40:10.020Z,91.08
2019-04-07T05:41:12.062Z,91.37
2019-04-07T05:42:38.946Z,91.08
2019-04-07T05:43:55.756Z,92.03
2019-04-07T05:44:55.995Z,92.22
2019-04-07T05:45:56.635Z,92.32
2019-04-07T05:47:27.626Z,92.60
2019-04-07T05:48:21.592Z,92.89
2019-04-07T05:49:12.032Z,92.79
2019-04-07T05:50:17.036Z,92.51
2019-04-07T05:51:25.237Z,92.89
2019-04-07T05:52:54.023Z,93.18
2019-04-07T05:54:03.591Z,92.89
2019-04-07T05:54:42.815Z,93.60
2019-04-07T05:56:17.602Z,93.51
2019-04-07T05:57:07.667Z,94.08
2019-04-07T05:58:18.020Z,94.27
2019-04-07T05:59:16.384Z,93.89
2019-04-07T06:00:07.789Z,93.70
2019-04-07T06:01:23.264Z,94.17
2019-04-07T06:02:44.968Z,94.56
2019-04-07T06:03:45.837Z,94.56
2019-04-07T06:04:34.939Z,94.65
2019-04-07T06:05:32.399Z,94.37
2019-04-07T06:06:51.561Z,94.84
2019-04-07T06:08:00.676Z,94.84
2019-04-07T06:08:50.855Z,95.03
2019-04-07T06:10:05.438Z,95.51
2019-04-07T06:11:10.384Z,95.41
2019-04-07T06:12:24.050Z,96.08
2019-04-07T06:13:07.262Z,95.89
2019-04-07T06:14:30.288Z,96.17
2019-04-07T06:15:39.164Z,96.36
2019-04-07T06:16:38.771Z,96.84
2019-04-07T06:17:31.462Z,97.03
2019-04-07T06:18:39.658Z,97.27
2019-04-07T06:19:46.319Z,96.98
2019-04-07T06:21:00.047Z,97.36
2019-04-07T06:22:03.435Z,97.08
2019-04-07T06:23:08.479Z,97.08
2019-04-07T06:24:06.319Z,97.46
2019-04-07T06:25:11.246Z,97.46
2019-04-07T06:26:33.097Z,97.08
2019-04-07T06:27:25.184Z,97.36
2019-04-07T06:28:22.935Z,97.46
2019-04-07T06:29:36.602Z,97.75
2019-04-07T06:30:43.014Z,97.75
2019-04-07T06:31:48.225Z,97.94
2019-04-07T06:33:05.312Z,97.56
2019-04-07T06:34:00.861Z,97.08
2019-04-07T06:35:05.672Z,97.61
2019-04-07T06:36:07.011Z,97.03
2019-04-07T06:37:12.238Z,97.22
2019-04-07T06:38:29.573Z,96.75
2019-04-07T06:39:24.649Z,96.65
2019-04-07T06:40:33.828Z,96.27
2019-04-07T06:41:34.263Z,96.46
2019-04-07T06:42:44.049Z,97.13
2019-04-07T06:43:45.176Z,96.84
2019-04-07T06:44:54.236Z,96.84
2019-04-07T06:46:01.714Z,96.84
2019-04-07T06:46:59.966Z,97.13
2019-04-07T06:48:07.658Z,96.65
2019-04-07T06:49:12.265Z,96.75
2019-04-07T06:50:20.552Z,96.84
2019-04-07T06:51:30.148Z,97.08
2019-04-07T06:52:32.278Z,97.56
2019-04-07T06:53:32.833Z,96.89
2019-04-07T06:54:42.572Z,96.80
2019-04-07T06:55:46.361Z,96.70
2019-04-07T06:56:47.392Z,96.80
2019-04-07T06:57:57.055Z,96.41
2019-04-07T06:59:15.577Z,95.94
2019-04-07T07:00:03.693Z,96.22
2019-04-07T07:01:05.817Z,95.46
2019-04-07T07:02:22.549Z,95.94
2019-04-07T07:03:26.975Z,95.08
2019-04-07T07:04:25.285Z,95.17
2019-04-07T07:05:34.146Z,94.98
2019-04-07T07:06:40.576Z,94.22
2019-04-07T07:07:48.165Z,94.51
2019-04-07T07:08:46.390Z,94.60
2019-04-07T07:09:58.148Z,94.17
2019-04-07T07:11:07.954Z,94.17
2019-04-07T07:12:20.611Z,93.60
2019-04-07T07:13:26.528Z,93.41
2019-04-07T07:14:14.135Z,93.12
2019-04-07T07:15:18.194Z,93.41
2019-04-07T07:16:25.136Z,93.41
2019-04-07T07:17:32.310Z,93.51
2019-04-07T07:18:37.103Z,93.31
2019-04-07T07:19:46.422Z,93.60
2019-04-07T07:21:06.796Z,93.60
2019-04-07T07:21:55.739Z,93.88
2019-04-07T07:23:05.888Z,93.93
2019-04-07T07:24:12.320Z,93.65
2019-04-07T07:25:29.770Z,93.26
2019-04-07T07:26:32.924Z,93.26
2019-04-07T07:27:13.401Z,93.36
2019-04-07T07:28:26.167Z,93.46
2019-04-07T07:29:40.044Z,93.36
2019-04-07T07:30:40.451Z,93.36
2019-04-07T07:31:40.386Z,93.46
2019-04-07T07:33:00.697Z,92.93
2019-04-07T07:34:01.061Z,91.40
2019-04-07T07:35:05.091Z,91.30
2019-04-07T07:36:12.371Z,90.35
2019-04-07T07:37:26.832Z,90.45
2019-04-07T07:38:13.991Z,89.97
2019-04-07T07:39:34.013Z,89.39
2019-04-07T07:40:40.831Z,88.73
2019-04-07T07:41:40.123Z,88.34
2019-04-07T07:42:51.018Z,87.53
2019-04-07T07:43:43.561Z,86.96
2019-04-07T07:45:10.746Z,87.15
2019-04-07T07:46:03.806Z,85.90
2019-04-07T07:47:02.786Z,84.95
2019-04-07T07:48:10.990Z,84.47
2019-04-07T07:49:19.171Z,83.80
2019-04-07T07:50:28.359Z,83.51
2019-04-07T07:51:55.972Z,83.56
2019-04-07T07:52:36.204Z,83.08
2019-04-07T07:53:50.521Z,82.51
2019-04-07T07:54:35.112Z,82.79
2019-04-07T07:55:46.705Z,82.03
2019-04-07T07:57:04.930Z,82.31
2019-04-07T07:58:06.141Z,82.31
2019-04-07T07:59:11.161Z,81.45
2019-04-07T08:00:23.355Z,81.45
2019-04-07T08:01:19.201Z,81.16
2019-04-07T08:02:21.914Z,81.30
2019-04-07T08:03:32.185Z,81.88
2019-04-07T08:04:33.439Z,81.68
2019-04-07T08:05:39.271Z,80.44
2019-04-07T08:06:45.052Z,79.49
2019-04-07T08:07:50.002Z,79.68
2019-04-07T08:09:12.110Z,79.77
2019-04-07T08:09:59.596Z,79.10
2019-04-07T08:11:03.058Z,79.10
2019-04-07T08:12:09.480Z,79.29
2019-04-07T08:13:17.850Z,79.05
2019-04-07T08:14:28.339Z,79.14
2019-04-07T08:15:32.301Z,78.47
2019-04-07T08:16:39.050Z,78.38
2019-04-07T08:17:38.074Z,78.09
2019-04-07T08:18:46.440Z,77.61
2019-04-07T08:19:59.829Z,77.23
2019-04-07T08:20:58.954Z,75.70
2019-04-07T08:22:08.714Z,76.08
2019-04-07T08:23:13.408Z,76.08
2019-04-07T08:24:17.363Z,75.79
2019-04-07T08:25:20.531Z,75.07
2019-04-07T08:26:35.122Z,75.26
2019-04-07T08:27:30.247Z,74.30
2019-04-07T08:28:36.973Z,73.63
2019-04-07T08:29:37.258Z,74.01
2019-04-07T08:30:38.247Z,74.01
2019-04-07T08:31:56.612Z,74.20
2019-04-07T08:33:03.629Z,74.40
2019-04-07T08:34:03.722Z,74.20
2019-04-07T08:35:11.022Z,74.20
2019-04-07T08:36:14.724Z,73.76
2019-04-07T08:37:23.611Z,73.05
2019-04-07T08:38:36.654Z,72.38
2019-04-07T08:39:35.180Z,72.52
2019-04-07T08:40:39.164Z,72.23
2019-04-07T08:41:48.263Z,72.42
2019-04-07T08:42:50.174Z,72.23
2019-04-07T08:44:11.415Z,72.61
2019-04-07T08:45:17.895Z,72.61
2019-04-07T08:46:09.990Z,72.42
2019-04-07T08:47:02.795Z,72.13
2019-04-07T08:48:18.943Z,72.61
2019-04-07T08:49:32.082Z,71.37
2019-04-07T08:50:44.394Z,71.08
2019-04-07T08:52:15.267Z,70.44
2019-04-07T08:52:42.646Z,70.03
2019-04-07T08:54:18.606Z,69.96
2019-04-07T08:55:22.492Z,69.96
2019-04-07T08:56:37.746Z,70.35
2019-04-07T08:57:55.027Z,71.11
2019-04-07T08:59:45.298Z,70.83
2019-04-07T09:01:21.172Z,70.35
2019-04-07T09:03:00.904Z,69.68
2019-04-07T09:03:56.966Z,69.68
2019-04-07T09:04:52.430Z,69.29
2019-04-07T09:06:06.193Z,69.20
2019-04-07T09:07:19.270Z,69.90
2019-04-07T09:08:11.761Z,70.00
2019-04-07T09:09:34.119Z,69.52
2019-04-07T09:10:18.706Z,69.52
2019-04-07T09:11:15.767Z,68.66
2019-04-07T09:12:24.877Z,68.85
2019-04-07T09:13:20.804Z,68.95
2019-04-07T09:14:28.406Z,68.85
2019-04-07T09:15:26.236Z,68.56
2019-04-07T09:16:34.395Z,68.75
2019-04-07T09:17:40.464Z,68.95
2019-04-07T09:18:51.726Z,68.75
2019-04-07T09:19:55.542Z,68.56
2019-04-07T09:20:56.066Z,69.17
2019-04-07T09:22:01.890Z,69.17
2019-04-07T09:23:03.344Z,68.50
2019-04-07T09:24:16.409Z,67.83
2019-04-07T09:25:21.512Z,67.35
2019-04-07T09:26:22.581Z,67.92
2019-04-07T09:27:23.517Z,68.02
2019-04-07T09:28:31.485Z,67.54
2019-04-07T09:29:39.634Z,67.73
2019-04-07T09:30:42.197Z,67.06
2019-04-07T09:31:57.627Z,67.06
2019-04-07T09:33:01.276Z,66.77
2019-04-07T09:33:57.208Z,66.67
2019-04-07T09:35:11.257Z,66.49
2019-04-07T09:36:13.886Z,65.23
2019-04-07T09:37:24.322Z,65.05
2019-04-07T09:38:27.283Z,66.67
2019-04-07T09:39:26.935Z,67.29
2019-04-07T09:40:27.925Z,66.29
2019-04-07T09:41:36.419Z,65.94
2019-04-07T09:42:45.989Z,65.84
2019-04-07T09:44:01.054Z,66.42
2019-04-07T09:44:52.882Z,66.03
2019-04-07T09:46:05.140Z,66.42
2019-04-07T09:47:04.351Z,66.23
2019-04-07T09:48:21.020Z,65.75
2019-04-07T09:49:13.547Z,65.65
2019-04-07T09:50:15.162Z,66.80
2019-04-07T09:51:24.350Z,65.65
2019-04-07T09:52:32.728Z,65.69
2019-04-07T09:53:44.821Z,66.26
2019-04-07T09:54:41.956Z,65.59
2019-04-07T09:55:50.527Z,65.30
2019-04-07T09:56:52.621Z,65.40
2019-04-07T09:58:07.755Z,64.72
2019-04-07T09:59:07.886Z,65.40
2019-04-07T10:00:17.419Z,64.53
2019-04-07T10:01:12.123Z,64.34
2019-04-07T10:02:25.084Z,64.43
2019-04-07T10:03:32.190Z,64.34
2019-04-07T10:04:38.181Z,64.25
2019-04-07T10:05:40.345Z,63.86
2019-04-07T10:06:49.400Z,64.28
2019-04-07T10:07:53.201Z,64.37
2019-04-07T10:09:00.036Z,64.28
2019-04-07T10:10:04.610Z,63.41
2019-04-07T10:11:06.954Z,63.60
2019-04-07T10:12:10.218Z,63.12
2019-04-07T10:13:24.053Z,61.68
2019-04-07T10:14:19.542Z,62.55
2019-04-07T10:15:34.015Z,61.78
2019-04-07T10:16:33.785Z,62.35
2019-04-07T10:17:43.116Z,62.29
2019-04-07T10:18:55.159Z,60.91
2019-04-07T10:19:48.938Z,60.66
2019-04-07T10:20:56.781Z,60.66
2019-04-07T10:22:01.625Z,60.66
2019-04-07T10:23:16.758Z,61.33
2019-04-07T10:24:17.018Z,60.75
2019-04-07T10:25:17.490Z,61.14
2019-04-07T10:26:33.819Z,61.52
2019-04-07T10:27:31.298Z,60.08
2019-04-07T10:28:42.818Z,60.11
2019-04-07T10:29:47.009Z,61.65
2019-04-07T10:30:41.537Z,59.34
2019-04-07T10:32:02.405Z,59.15
2019-04-07T10:32:57.393Z,59.44
2019-04-07T10:34:08.150Z,58.86
2019-04-07T10:35:11.270Z,57.99
2019-04-07T10:36:17.260Z,58.28
2019-04-07T10:37:21.923Z,59.15
2019-04-07T10:38:27.112Z,59.56
2019-04-07T10:39:25.043Z,57.73
2019-04-07T10:40:44.421Z,57.15
2019-04-07T10:41:48.439Z,56.48
2019-04-07T10:42:45.762Z,57.25
2019-04-07T10:44:01.584Z,57.25
2019-04-07T10:45:03.699Z,56.38
2019-04-07T10:46:04.423Z,56.87
2019-04-07T10:47:13.655Z,57.37
2019-04-07T10:48:16.519Z,55.83
2019-04-07T10:49:26.198Z,56.03
2019-04-07T10:50:33.587Z,55.55
2019-04-07T10:51:51.357Z,55.74
2019-04-07T10:52:54.451Z,55.83
2019-04-07T10:54:02.617Z,57.18
2019-04-07T10:55:09.735Z,56.12
2019-04-07T10:56:10.329Z,55.38
2019-04-07T10:57:12.308Z,55.57
2019-04-07T10:58:38.005Z,55.48
2019-04-07T10:59:23.544Z,55.48
2019-04-07T11:00:34.884Z,55.57
2019-04-07T11:01:39.832Z,55.00
2019-04-07T11:02:26.988Z,55.00
2019-04-07T11:03:37.089Z,55.57
2019-04-07T11:04:55.192Z,54.64
2019-04-07T11:05:54.890Z,54.74
2019-04-07T11:06:50.237Z,54.83
2019-04-07T11:08:07.094Z,55.02
2019-04-07T11:09:04.775Z,55.02
2019-04-07T11:10:28.820Z,52.61
2019-04-07T11:11:22.248Z,53.87
2019-04-07T11:12:36.770Z,53.58
2019-04-07T11:13:27.639Z,53.48
2019-04-07T11:14:40.462Z,53.19
2019-04-07T11:15:47.629Z,52.91
2019-04-07T11:16:43.239Z,53.48
2019-04-07T11:17:50.366Z,53.58
2019-04-07T11:18:56.543Z,51.94
2019-04-07T11:20:04.771Z,51.75
2019-04-07T11:21:09.503Z,51.94
2019-04-07T11:22:12.257Z,52.13
2019-04-07T11:23:21.737Z,52.33
2019-04-07T11:24:25.063Z,51.94
2019-04-07T11:25:34.689Z,52.25
2019-04-07T11:26:39.710Z,52.73
2019-04-07T11:27:40.871Z,52.83
2019-04-07T11:28:53.681Z,53.80
2019-04-07T11:29:53.986Z,52.28
2019-04-07T11:30:56.327Z,52.95
2019-04-07T11:32:06.516Z,52.76
2019-04-07T11:33:07.118Z,52.09
2019-04-07T11:34:08.759Z,52.09
2019-04-07T11:35:19.309Z,50.26
2019-04-07T11:36:26.576Z,49.58
2019-04-07T11:37:30.864Z,49.68
2019-04-07T11:38:39.501Z,49.10
2019-04-07T11:39:32.702Z,48.81
2019-04-07T11:40:49.974Z,47.44
2019-04-07T11:41:58.950Z,48.49
2019-04-07T11:42:52.416Z,49.27
2019-04-07T11:44:07.792Z,49.37
2019-04-07T11:45:08.216Z,49.84
2019-04-07T11:46:07.195Z,49.48
2019-04-07T11:47:16.388Z,49.87
2019-04-07T11:48:20.969Z,49.00
2019-04-07T11:49:28.995Z,48.33
2019-04-07T11:50:41.935Z,47.85
2019-04-07T11:51:44.126Z,47.94
2019-04-07T11:52:36.722Z,47.75
2019-04-07T11:53:48.404Z,48.13
2019-04-07T11:55:00.884Z,47.34
2019-04-07T11:56:09.880Z,47.92
2019-04-07T11:57:07.370Z,47.82
2019-04-07T11:58:16.529Z,48.79
2019-04-07T11:59:14.714Z,50.06
2019-04-07T12:00:25.074Z,49.00
2019-04-07T12:01:24.052Z,48.52
2019-04-07T12:02:40.398Z,48.61
2019-04-07T12:03:32.915Z,48.42
2019-04-07T12:04:51.735Z,48.81
2019-04-07T12:05:51.458Z,49.58
2019-04-07T12:06:56.448Z,50.16
2019-04-07T12:08:02.028Z,50.38
2019-04-07T12:09:06.518Z,49.22
2019-04-07T12:10:08.380Z,48.64
2019-04-07T12:11:14.180Z,47.58
2019-04-07T12:12:28.725Z,47.19
2019-04-07T12:13:37.503Z,47.77
2019-04-07T12:14:36.302Z,48.44
2019-04-07T12:15:40.020Z,48.54
2019-04-07T12:16:47.025Z,47.96
2019-04-07T12:17:55.665Z,48.25
2019-04-07T12:19:03.324Z,47.29
2019-04-07T12:20:04.261Z,47.58
2019-04-07T12:21:18.434Z,47.00
2019-04-07T12:22:16.070Z,47.38
2019-04-07T12:23:24.242Z,48.06
2019-04-07T12:24:24.638Z,46.42
2019-04-07T12:25:32.728Z,47.09
2019-04-07T12:26:39.420Z,46.90
2019-04-07T12:27:46.243Z,46.51
2019-04-07T12:28:43.320Z,47.48
2019-04-07T12:29:53.651Z,47.19
2019-04-07T12:30:56.402Z,47.19
2019-04-07T12:32:13.444Z,46.90
2019-04-07T12:33:09.891Z,46.90
2019-04-07T12:34:18.960Z,46.90
2019-04-07T12:35:21.657Z,47.29
2019-04-07T12:36:34.396Z,46.71
2019-04-07T12:37:30.682Z,46.51
2019-04-07T12:38:33.862Z,47.67
2019-04-07T12:39:41.865Z,48.86
2019-04-07T12:40:51.024Z,47.70
2019-04-07T12:42:06.032Z,48.57
2019-04-07T12:43:00.559Z,47.70
2019-04-07T12:44:06.073Z,47.99
2019-04-07T12:45:04.744Z,47.02
2019-04-07T12:46:21.082Z,47.02
2019-04-07T12:47:21.437Z,47.12
2019-04-07T12:48:33.526Z,46.73
2019-04-07T12:49:28.732Z,46.06
2019-04-07T12:50:35.611Z,46.44
2019-04-07T12:51:53.047Z,45.67
2019-04-07T12:52:49.126Z,46.34
2019-04-07T12:54:00.185Z,46.54
2019-04-07T12:55:17.723Z,46.44
2019-04-07T12:56:03.682Z,46.34
2019-04-07T12:57:07.369Z,46.25
2019-04-07T12:58:19.360Z,46.06
2019-04-07T12:59:27.233Z,46.27
2019-04-07T13:00:30.829Z,45.89
2019-04-07T13:01:47.271Z,45.69
2019-04-07T13:02:47.493Z,46.17
2019-04-07T13:03:45.101Z,46.47
2019-04-07T13:04:57.257Z,46.66
2019-04-07T13:05:55.288Z,45.40
2019-04-07T13:07:03.810Z,44.53
2019-04-07T13:08:16.829Z,44.73
2019-04-07T13:09:20.466Z,44.63
2019-04-07T13:10:20.603Z,44.82
2019-04-07T13:11:33.157Z,44.82
2019-04-07T13:12:35.449Z,44.15
2019-04-07T13:13:30.641Z,43.18
2019-04-07T13:14:47.508Z,44.73
2019-04-07T13:15:58.197Z,43.47
2019-04-07T13:16:59.171Z,43.85
2019-04-07T13:17:55.239Z,44.05
2019-04-07T13:19:10.490Z,44.43
2019-04-07T13:20:07.390Z,44.34
2019-04-07T13:21:23.285Z,43.08
2019-04-07T13:22:18.282Z,42.70
2019-04-07T13:23:39.711Z,42.12
2019-04-07T13:24:41.492Z,42.48
2019-04-07T13:25:45.364Z,42.70
2019-04-07T13:26:37.675Z,42.79
2019-04-07T13:27:46.864Z,43.08
2019-04-07T13:28:57.534Z,43.95
2019-04-07T13:29:55.404Z,44.82
2019-04-07T13:31:14.501Z,45.04
2019-04-07T13:32:22.058Z,44.65
2019-04-07T13:33:23.855Z,43.99
2019-04-07T13:34:12.951Z,43.15
2019-04-07T13:35:31.898Z,42.96
2019-04-07T13:36:51.055Z,42.20
2019-04-07T13:37:38.382Z,41.64
2019-04-07T13:38:45.834Z,42.24
2019-04-07T13:39:53.395Z,40.86
2019-04-07T13:40:53.093Z,41.37
2019-04-07T13:42:00.203Z,41.37
2019-04-07T13:43:18.742Z,40.99
2019-04-07T13:44:14.987Z,40.99
2019-04-07T13:45:24.767Z,40.38
2019-04-07T13:46:38.905Z,40.09
2019-04-07T13:47:39.478Z,40.00
2019-04-07T13:48:43.050Z,40.09
2019-04-07T13:49:42.449Z,40.65
2019-04-07T13:50:44.969Z,41.04
2019-04-07T13:51:46.916Z,40.92
2019-04-07T13:53:06.665Z,40.92
2019-04-07T13:54:23.028Z,41.11
2019-04-07T13:55:40.274Z,41.21
2019-04-07T13:57:16.579Z,40.34
2019-04-07T13:58:17.195Z,41.39
2019-04-07T13:58:56.592Z,41.67
2019-04-07T14:00:16.874Z,41.46
2019-04-07T14:01:03.510Z,41.17
2019-04-07T14:02:42.214Z,41.66
2019-04-07T14:03:29.147Z,42.24
2019-04-07T14:04:21.473Z,42.24
2019-04-07T14:05:44.795Z,42.52
2019-04-07T14:06:43.535Z,42.52
2019-04-07T14:07:58.975Z,43.49
2019-04-07T14:08:59.863Z,44.36
2019-04-07T14:09:50.746Z,43.30
2019-04-07T14:10:59.256Z,42.79
2019-04-07T14:12:12.712Z,42.21
2019-04-07T14:13:25.713Z,42.60
2019-04-07T14:14:26.752Z,43.08
2019-04-07T14:15:19.368Z,44.05